Aeroporto :
LOGIN :

Iscrizione | Disclaimer

   EN    FR    IT 

 










Sommario :    VFR   VFR Marginale   IFR   IFR Intensivo   IFR Molto Intensivo
Visibilità : 
Base nubi : 
>= 8 km
>= 3000ft
5 / 8 km
1000 / 3000 ft
1500m / 5 km
500 / 1000 ft
800 / 1500m
200 / 500 ft
< 800m
< 200 ft
Simboli :   Temporali  Nebbia  Neve Forte  Precipitazioni Forti  Vento > 20 kt
SIGMETs :   Varie  Temporali  Ghiacco  Turbolenza  Onda orograficha  Ceneri Vulcaniche






- Altitudine del aeroporto : 7 ft
- Codice IATA : ESH


EGKA - Shoreham

ULTIMO METAR :
  • 151250Z 35013KT 9999 SCT011 08/06 Q1001

METARs OBSOLETI :
  • 151220Z 36015KT 9999 BKN011 08/06 Q1001
  • 151150Z 35016KT 9999 BKN010 08/06 Q1001
  • 151120Z 35015KT 8000 BKN010 07/06 Q1002
  • 151050Z 34013KT 8000 -RA BKN012 07/06 Q1002

TAF TAF EGKA
Valido dal 15 a 12 ore il 15 a 21 ore UTC


151101Z 1512/1521 02010KT 9999 SCT025
TEMPO 1512/1515 02015G25KT
TEMPO 1515/1521 6000 RA SHRA BKN014
PROB30
TEMPO 1516/1521 4000 +SHRA BKN009
ATIS : +44 1273 467 372



MetMap, La meteo Aeronautica in un colpo d'occhio ! - Copyright ORBIFLY Dicembre 2007 - Disclaimer

ORBIFLY MET'MAP TEAM :

Programmazione e sviluppo : Alexandra Zaïnal
Concezione e sviluppo : Baudouin d'Aumeries
Co-Programmazione e sviluppo : Marc-Olivier Méhu
Supporto tecnico e logistico : Manuel Goepfert
Aiuto per la traduzione : Arnaldo La Scala

Contatto : metmap@orbifly.com




FONTI E CREDITI :

   NOAA